createdAt,value
2024-03-21T00:00:50.858Z,8.15
2024-03-21T00:06:31.556Z,8.15
2024-03-21T00:11:41.678Z,8.16
2024-03-21T00:16:47.221Z,8.18
2024-03-21T00:21:56.569Z,8.23
2024-03-21T00:27:42.732Z,8.33
2024-03-21T00:33:25.097Z,8.42
2024-03-21T00:38:42.757Z,8.41
2024-03-21T00:43:48.023Z,8.38
2024-03-21T00:48:58.481Z,8.38
2024-03-21T00:54:06.168Z,8.36
2024-03-21T00:59:11.545Z,8.36
2024-03-21T01:04:25.550Z,8.32
2024-03-21T01:09:29.382Z,8.32
2024-03-21T01:15:05.023Z,8.33
2024-03-21T01:20:18.667Z,8.26
2024-03-21T01:25:22.472Z,8.23
2024-03-21T01:30:35.709Z,8.17
2024-03-21T01:35:50.851Z,8.13
2024-03-21T01:40:56.099Z,8.10
2024-03-21T01:46:11.976Z,8.10
2024-03-21T01:51:37.846Z,8.11
2024-03-21T01:57:06.129Z,8.05
2024-03-21T02:02:24.724Z,7.93
2024-03-21T02:07:29.383Z,7.77
2024-03-21T02:13:15.296Z,7.70
2024-03-21T02:18:22.865Z,7.73
2024-03-21T02:23:28.283Z,7.76
2024-03-21T02:28:31.015Z,7.77
2024-03-21T02:34:06.734Z,7.78
2024-03-21T02:39:18.406Z,7.78
2024-03-21T02:44:26.376Z,7.76
2024-03-21T02:49:30.752Z,7.70
2024-03-21T02:54:53.647Z,7.61
2024-03-21T03:00:19.683Z,7.47
2024-03-21T03:06:04.615Z,7.34
2024-03-21T03:11:11.610Z,7.21
2024-03-21T03:16:16.593Z,7.14
2024-03-21T03:21:19.320Z,7.07
2024-03-21T03:26:34.004Z,6.96
2024-03-21T03:31:36.311Z,6.88
2024-03-21T03:36:38.553Z,6.86
2024-03-21T03:41:46.376Z,6.91
2024-03-21T03:46:51.604Z,6.96
2024-03-21T03:52:29.261Z,6.97
2024-03-21T03:57:34.180Z,6.99
2024-03-21T04:02:38.648Z,7.03
2024-03-21T04:08:27.992Z,7.03
2024-03-21T04:13:43.385Z,7.00
2024-03-21T04:18:58.940Z,6.96
2024-03-21T04:24:11.717Z,6.92
2024-03-21T04:29:34.178Z,6.88
2024-03-21T04:34:51.131Z,6.90
2024-03-21T04:39:53.685Z,6.96
2024-03-21T04:44:59.315Z,7.02
2024-03-21T04:50:34.393Z,7.09
2024-03-21T04:55:40.305Z,7.13
2024-03-21T05:01:31.562Z,7.20
2024-03-21T05:07:05.443Z,7.24
2024-03-21T05:12:39.311Z,7.26
2024-03-21T05:17:47.765Z,7.29
2024-03-21T05:22:59.494Z,7.33
2024-03-21T05:28:07.643Z,7.39
2024-03-21T05:33:12.466Z,7.41
2024-03-21T05:38:17.004Z,7.45
2024-03-21T05:43:37.814Z,7.54
2024-03-21T05:48:40.162Z,7.61
2024-03-21T05:54:02.540Z,7.64
2024-03-21T05:59:10.511Z,7.65
2024-03-21T06:04:19.090Z,7.65
2024-03-21T06:09:23.678Z,7.67
2024-03-21T06:14:29.743Z,7.68
2024-03-21T06:19:32.265Z,7.71
2024-03-21T06:25:03.827Z,7.78
2024-03-21T06:30:10.036Z,7.87
2024-03-21T06:35:21.191Z,7.99
2024-03-21T06:40:33.991Z,8.14
2024-03-21T06:45:37.874Z,8.34
2024-03-21T06:50:40.334Z,8.45
2024-03-21T06:56:12.619Z,8.51
2024-03-21T07:02:35.115Z,8.59
2024-03-21T07:07:58.447Z,8.73
2024-03-21T07:13:00.671Z,8.83
2024-03-21T07:18:46.342Z,8.97
2024-03-21T07:23:54.768Z,9.09
2024-03-21T07:28:57.103Z,9.10
2024-03-21T07:33:59.349Z,9.08
2024-03-21T07:39:21.763Z,9.10
2024-03-21T07:44:43.357Z,9.11
2024-03-21T07:49:52.346Z,9.11
2024-03-21T07:54:54.386Z,9.08
2024-03-21T07:59:57.143Z,9.05
2024-03-21T08:04:59.068Z,9.02
2024-03-21T08:10:02.016Z,9.00
2024-03-21T08:15:08.155Z,8.97
2024-03-21T08:20:20.228Z,8.89
2024-03-21T08:25:23.355Z,8.87
2024-03-21T08:30:31.542Z,8.80
2024-03-21T08:35:33.572Z,8.74
2024-03-21T08:40:35.882Z,8.70
2024-03-21T08:45:59.432Z,8.57
2024-03-21T08:51:01.424Z,8.43
2024-03-21T08:56:06.861Z,8.33
2024-03-21T09:01:08.730Z,8.25
2024-03-21T09:06:23.822Z,8.25
2024-03-21T09:11:27.404Z,8.39
2024-03-21T09:16:32.711Z,8.49
2024-03-21T09:21:35.615Z,8.39
2024-03-21T09:26:39.754Z,8.20
2024-03-21T09:31:42.074Z,8.16
2024-03-21T09:36:49.574Z,8.14
2024-03-21T09:41:56.260Z,8.18
2024-03-21T09:47:01.205Z,8.29
2024-03-21T09:52:03.526Z,8.34
2024-03-21T09:57:09.621Z,8.41
2024-03-21T10:02:15.358Z,8.41
2024-03-21T10:07:25.179Z,8.41
2024-03-21T10:12:27.563Z,8.41
2024-03-21T10:17:31.854Z,8.41
2024-03-21T10:22:34.140Z,8.42
2024-03-21T10:27:38.842Z,8.33
2024-03-21T10:32:44.130Z,8.29
2024-03-21T10:37:48.616Z,8.30
2024-03-21T10:42:55.695Z,8.28
2024-03-21T10:47:58.541Z,8.28
2024-03-21T10:53:01.754Z,8.34
2024-03-21T10:58:06.003Z,8.44
2024-03-21T11:03:16.244Z,8.73
2024-03-21T11:08:29.708Z,9.09
2024-03-21T11:13:46.934Z,9.54
2024-03-21T11:18:52.311Z,10.33
2024-03-21T11:23:57.409Z,11.42
2024-03-21T11:29:14.835Z,11.74
2024-03-21T11:34:36.376Z,11.86
2024-03-21T11:39:44.178Z,11.98
2024-03-21T11:44:52.210Z,11.72
2024-03-21T11:49:54.685Z,11.47
2024-03-21T11:54:57.384Z,11.47
2024-03-21T12:00:01.881Z,11.81
2024-03-21T12:05:25.203Z,12.84
2024-03-21T12:10:30.477Z,13.33
2024-03-21T12:15:32.361Z,13.55
2024-03-21T12:20:37.599Z,13.85
2024-03-21T12:25:45.780Z,13.91
2024-03-21T12:30:49.433Z,13.27
2024-03-21T12:35:56.452Z,12.60
2024-03-21T12:41:22.848Z,12.53
2024-03-21T12:46:45.518Z,12.33
2024-03-21T12:51:48.029Z,12.29
2024-03-21T12:56:50.175Z,12.31
2024-03-21T13:02:21.456Z,12.48
2024-03-21T13:07:24.547Z,12.49
2024-03-21T13:12:27.458Z,12.73
2024-03-21T13:17:32.528Z,13.67
2024-03-21T13:22:35.578Z,14.11
2024-03-21T13:27:41.488Z,14.23
2024-03-21T13:32:50.069Z,14.68
2024-03-21T13:37:52.904Z,14.88
2024-03-21T13:42:55.520Z,15.27
2024-03-21T13:47:57.522Z,15.44
2024-03-21T13:53:02.595Z,15.59
2024-03-21T13:58:04.839Z,15.56
2024-03-21T14:03:16.257Z,14.95
2024-03-21T14:08:19.877Z,14.54
2024-03-21T14:13:22.014Z,14.67
2024-03-21T14:18:26.630Z,14.22
2024-03-21T14:23:29.636Z,14.34
2024-03-21T14:28:35.169Z,14.49
2024-03-21T14:33:37.271Z,13.94
2024-03-21T14:38:40.055Z,13.85
2024-03-21T14:43:42.508Z,13.75
2024-03-21T14:48:45.888Z,14.04
2024-03-21T14:53:55.811Z,13.76
2024-03-21T14:59:18.361Z,13.56
2024-03-21T15:04:20.190Z,13.46
2024-03-21T15:09:22.440Z,13.38
2024-03-21T15:14:24.475Z,13.55
2024-03-21T15:19:37.290Z,13.82
2024-03-21T15:24:39.345Z,13.78
2024-03-21T15:29:41.541Z,13.61
2024-03-21T15:34:49.435Z,13.39
2024-03-21T15:39:57.320Z,13.29
2024-03-21T15:45:02.468Z,13.20
2024-03-21T15:50:06.051Z,13.15
2024-03-21T15:55:11.575Z,13.06
2024-03-21T16:00:18.023Z,12.88
2024-03-21T16:05:20.552Z,12.78
2024-03-21T16:10:28.197Z,12.73
2024-03-21T16:15:31.939Z,12.69
2024-03-21T16:20:37.216Z,12.66
2024-03-21T16:25:41.056Z,12.61
2024-03-21T16:30:43.781Z,12.55
2024-03-21T16:36:00.549Z,12.48
2024-03-21T16:41:03.100Z,12.41
2024-03-21T16:46:08.229Z,12.34
2024-03-21T16:51:12.170Z,12.25
2024-03-21T16:56:14.274Z,12.18
2024-03-21T17:01:17.225Z,12.13
2024-03-21T17:06:22.629Z,12.10
2024-03-21T17:11:27.320Z,12.09
2024-03-21T17:16:29.475Z,12.07
2024-03-21T17:21:31.809Z,12.04
2024-03-21T17:26:33.893Z,11.97
2024-03-21T17:31:39.994Z,11.54
2024-03-21T17:36:43.296Z,11.01
2024-03-21T17:41:46.864Z,10.72
2024-03-21T17:46:49.626Z,10.51
2024-03-21T17:52:12.119Z,10.35
2024-03-21T17:57:20.211Z,10.26
2024-03-21T18:02:24.786Z,10.23
2024-03-21T18:07:27.706Z,10.18
2024-03-21T18:12:52.295Z,10.13
2024-03-21T18:18:02.095Z,10.05
2024-03-21T18:23:08.857Z,10.01
2024-03-21T18:28:12.208Z,10.00
2024-03-21T18:33:15.334Z,9.98
2024-03-21T18:38:17.662Z,9.98
2024-03-21T18:43:20.401Z,10.02
2024-03-21T18:48:22.368Z,10.04
2024-03-21T18:53:24.315Z,10.03
2024-03-21T18:58:27.033Z,10.02
2024-03-21T19:03:39.210Z,10.01
2024-03-21T19:08:42.079Z,9.97
2024-03-21T19:14:15.768Z,9.91
2024-03-21T19:19:40.123Z,9.82
2024-03-21T19:25:02.680Z,9.70
2024-03-21T19:30:22.030Z,9.59
2024-03-21T19:35:32.958Z,9.49
2024-03-21T19:40:45.189Z,9.39
2024-03-21T19:45:51.137Z,9.30
2024-03-21T19:50:53.522Z,9.25
2024-03-21T19:56:10.058Z,9.20
2024-03-21T20:01:15.168Z,9.13
2024-03-21T20:06:39.235Z,9.10
2024-03-21T20:11:41.262Z,9.08
2024-03-21T20:16:43.383Z,9.09
2024-03-21T20:21:52.895Z,9.12
2024-03-21T20:27:06.569Z,9.11
2024-03-21T20:32:17.934Z,9.10
2024-03-21T20:37:29.302Z,9.08
2024-03-21T20:42:31.456Z,9.08
2024-03-21T20:47:36.786Z,9.07
2024-03-21T20:52:42.960Z,9.05
2024-03-21T20:57:48.571Z,9.04
2024-03-21T21:02:50.690Z,9.03
2024-03-21T21:07:53.447Z,9.02
2024-03-21T21:12:56.340Z,9.02
2024-03-21T21:18:02.834Z,8.98
2024-03-21T21:23:04.857Z,8.94
2024-03-21T21:28:08.919Z,8.88
2024-03-21T21:33:16.849Z,8.86
2024-03-21T21:38:19.201Z,8.82
2024-03-21T21:43:45.303Z,8.77
2024-03-21T21:48:54.678Z,8.73
2024-03-21T21:54:02.786Z,8.71
2024-03-21T21:59:05.230Z,8.68
2024-03-21T22:04:42.838Z,8.67
2024-03-21T22:10:20.693Z,8.65
2024-03-21T22:27:39.378Z,8.58
2024-03-21T22:32:54.493Z,8.55
2024-03-21T22:38:13.200Z,8.53
2024-03-21T22:43:23.968Z,8.51
2024-03-21T22:48:26.149Z,8.49
2024-03-21T22:53:39.798Z,8.47
2024-03-21T22:58:44.913Z,8.44
2024-03-21T23:03:55.926Z,8.42
2024-03-21T23:09:18.425Z,8.39
2024-03-21T23:14:20.766Z,8.34
2024-03-21T23:19:35.625Z,8.29
2024-03-21T23:24:57.398Z,8.24
2024-03-21T23:30:05.759Z,8.18
2024-03-21T23:35:22.601Z,8.13
2024-03-21T23:40:30.459Z,8.10
2024-03-21T23:45:32.572Z,8.06
2024-03-21T23:50:38.102Z,8.03
2024-03-21T23:55:43.841Z,7.99
